« 懐古蔵出:島旅 伊江島 2001/12/7 fri | トップページ | 懐古蔵出:島旅 慶良間諸島 2001/12/8 sat »

2020/05/14

巡回 富山空港他 2020/5/14 thu

昨日のスタアラをもって富山空港の定期便は、月末までお休みです。緊急事態制限は、今晩解除されるようですが、働くお船の動向を確認してきました。

RJNT 132300Z 20008KT 9999 FEW090 19/03 Q1019

20200514_minato_00jintsu

「神通」さんは、国旗も上がらずお休み中。

RJNT 140000Z 23003KT 150V300 9999 FEW090 21/03 Q1018

20200514_minato_01ps203

PS203「のりくら」さんは、もう出航して活動中。

20200514_minato_02tsurugi

富山県漁業取締船「つるぎ」さんは、パトロールに出航

20200514_minato_03kaioumaru

「海王丸」は、休業中

20200514_minato_04kairyu

渡船、曳舟さんは係留中

20200514_minato_05kairyu

今日は、橙の渡船「海竜」さんが当番

20200514_minato_06raichou

「らいちょう」「日本海」さんは、ひっそりと動きがなさそう。

20200514_minato_07shinkou

20200514_minato_08manyousen

偶然、万葉線到着

20200514_minato_09manyousen

越の潟駅 いつのまにか綺麗な待合室が出来ていた。

20200514_minato_10manyousen

ドラえもんは、お休み中

20200514_minato_11pl04

PL04「やひこ」さんは、グラインダーが廻って塗装保守中。

20200514_minato_12pl04

20200514_minato_13koshikaze

港湾業務艇「なごかぜ」さんは、出航準備中

RJNT 140100Z 24004KT 190V290 9999 FEW090 23/06 Q1018

20200514_minato_14himisen

丁度、氷見線氷見行きがのんびりと

20200514_rjnt_15yamato

消防艇「やまと」とCL68「たちかぜ」

RJNT 140200Z VRB03KT 9999 FEW090 SCT/// 25/06 Q1018

河原へ廻ります。

20200514_rjnt_16ja6502

JA6502↑ AS350B3 AKF

20200514_rjnt_17ja970a

JA970A AW139 JCG

20200514_rjnt_18ja970a

脚を引っ込めるところ

RJNT 140400Z 35007KT 310V060 CAVOK 26/01 Q1017

20200514_rjnt_19ja139t

JA139T↑ AW139 富山県警察

RJNT 140500Z VRB03KT CAVOK 26/01 Q1017

この後、NHKの JA32NH さんが取材してからFSL。

ドクヘリさんは、飛騨ミッション

20200514_toyama_20tateyama

平野から立山連峰が綺麗に拝めます。

20200514_toyama_21tateyama

立山もだいぶ黒くなってきました。

20200514_toyama_22tateyama

称名滝には、露払いと太刀持ちが出来ています。

本日の接触 消耗品購入でホームセンターのお姉さん

 

|

« 懐古蔵出:島旅 伊江島 2001/12/7 fri | トップページ | 懐古蔵出:島旅 慶良間諸島 2001/12/8 sat »

富山空港」カテゴリの記事

警務消防」カテゴリの記事

海上保安庁」カテゴリの記事

コメント

コメントを書く



(ウェブ上には掲載しません)


コメントは記事投稿者が公開するまで表示されません。



« 懐古蔵出:島旅 伊江島 2001/12/7 fri | トップページ | 懐古蔵出:島旅 慶良間諸島 2001/12/8 sat »